sensor_id;sensor_type;location;lat;lon;timestamp;pressure;altitude;pressure_sealevel;temperature
11424;BMP180;5768;51.476;7.210;2023-02-28T00:03:34;101607.00;;;5.10
11424;BMP180;5768;51.476;7.210;2023-02-28T00:08:37;101609.00;;;5.00
11424;BMP180;5768;51.476;7.210;2023-02-28T00:13:44;101605.00;;;5.00
11424;BMP180;5768;51.476;7.210;2023-02-28T00:18:48;101608.00;;;4.90
11424;BMP180;5768;51.476;7.210;2023-02-28T00:23:51;101613.00;;;4.90
11424;BMP180;5768;51.476;7.210;2023-02-28T00:28:54;101598.00;;;4.90
11424;BMP180;5768;51.476;7.210;2023-02-28T00:33:56;101600.00;;;4.80
11424;BMP180;5768;51.476;7.210;2023-02-28T00:38:59;101609.00;;;4.80
11424;BMP180;5768;51.476;7.210;2023-02-28T00:44:02;101596.00;;;4.70
11424;BMP180;5768;51.476;7.210;2023-02-28T00:49:04;101591.00;;;4.60
11424;BMP180;5768;51.476;7.210;2023-02-28T00:54:07;101603.00;;;4.60
11424;BMP180;5768;51.476;7.210;2023-02-28T00:59:10;101613.00;;;4.50
11424;BMP180;5768;51.476;7.210;2023-02-28T01:04:14;101619.00;;;4.50
11424;BMP180;5768;51.476;7.210;2023-02-28T01:09:16;101616.00;;;4.40
11424;BMP180;5768;51.476;7.210;2023-02-28T01:14:19;101615.00;;;4.40
11424;BMP180;5768;51.476;7.210;2023-02-28T01:19:24;101606.00;;;4.30
11424;BMP180;5768;51.476;7.210;2023-02-28T01:24:26;101616.00;;;4.30
11424;BMP180;5768;51.476;7.210;2023-02-28T01:29:50;101617.00;;;4.30
11424;BMP180;5768;51.476;7.210;2023-02-28T01:34:53;101613.00;;;4.20
11424;BMP180;5768;51.476;7.210;2023-02-28T01:39:55;101601.00;;;4.20
11424;BMP180;5768;51.476;7.210;2023-02-28T01:45:05;101604.00;;;4.20
11424;BMP180;5768;51.476;7.210;2023-02-28T01:50:15;101587.00;;;4.10
11424;BMP180;5768;51.476;7.210;2023-02-28T01:55:21;101591.00;;;4.10
11424;BMP180;5768;51.476;7.210;2023-02-28T02:00:27;101582.00;;;4.00
11424;BMP180;5768;51.476;7.210;2023-02-28T02:05:31;101578.00;;;4.00
11424;BMP180;5768;51.476;7.210;2023-02-28T02:10:40;101574.00;;;3.90
11424;BMP180;5768;51.476;7.210;2023-02-28T02:15:55;101563.00;;;3.90
11424;BMP180;5768;51.476;7.210;2023-02-28T02:27:11;101562.00;;;3.70
11424;BMP180;5768;51.476;7.210;2023-02-28T02:33:02;101564.00;;;3.70
11424;BMP180;5768;51.476;7.210;2023-02-28T02:38:13;101560.00;;;3.70
11424;BMP180;5768;51.476;7.210;2023-02-28T02:43:25;101562.00;;;3.60
11424;BMP180;5768;51.476;7.210;2023-02-28T02:48:34;101566.00;;;3.60
11424;BMP180;5768;51.476;7.210;2023-02-28T02:53:44;101557.00;;;3.60
11424;BMP180;5768;51.476;7.210;2023-02-28T02:58:52;101563.00;;;3.60
11424;BMP180;5768;51.476;7.210;2023-02-28T03:03:58;101567.00;;;3.60
11424;BMP180;5768;51.476;7.210;2023-02-28T03:09:03;101573.00;;;3.50
11424;BMP180;5768;51.476;7.210;2023-02-28T03:14:28;101571.00;;;3.50
11424;BMP180;5768;51.476;7.210;2023-02-28T03:20:04;101566.00;;;3.50
11424;BMP180;5768;51.476;7.210;2023-02-28T03:25:20;101558.00;;;3.50
11424;BMP180;5768;51.476;7.210;2023-02-28T03:30:29;101559.00;;;3.50
11424;BMP180;5768;51.476;7.210;2023-02-28T03:35:39;101559.00;;;3.40
11424;BMP180;5768;51.476;7.210;2023-02-28T03:40:48;101559.00;;;3.40
11424;BMP180;5768;51.476;7.210;2023-02-28T03:45:54;101572.00;;;3.40
11424;BMP180;5768;51.476;7.210;2023-02-28T03:50:59;101569.00;;;3.40
11424;BMP180;5768;51.476;7.210;2023-02-28T03:56:09;101569.00;;;3.30
11424;BMP180;5768;51.476;7.210;2023-02-28T04:01:21;101569.00;;;3.30
11424;BMP180;5768;51.476;7.210;2023-02-28T04:06:25;101570.00;;;3.30
11424;BMP180;5768;51.476;7.210;2023-02-28T04:11:36;101566.00;;;3.30
11424;BMP180;5768;51.476;7.210;2023-02-28T04:16:41;101568.00;;;3.30
11424;BMP180;5768;51.476;7.210;2023-02-28T04:21:47;101576.00;;;3.30
11424;BMP180;5768;51.476;7.210;2023-02-28T04:26:54;101577.00;;;3.30
11424;BMP180;5768;51.476;7.210;2023-02-28T04:31:57;101571.00;;;3.30
11424;BMP180;5768;51.476;7.210;2023-02-28T04:36:59;101581.00;;;3.30
11424;BMP180;5768;51.476;7.210;2023-02-28T04:42:03;101574.00;;;3.20
11424;BMP180;5768;51.476;7.210;2023-02-28T04:47:05;101579.00;;;3.20
11424;BMP180;5768;51.476;7.210;2023-02-28T04:52:07;101576.00;;;3.20
11424;BMP180;5768;51.476;7.210;2023-02-28T04:57:12;101577.00;;;3.20
11424;BMP180;5768;51.476;7.210;2023-02-28T05:02:14;101584.00;;;3.10
11424;BMP180;5768;51.476;7.210;2023-02-28T05:07:16;101580.00;;;3.10
11424;BMP180;5768;51.476;7.210;2023-02-28T05:12:19;101584.00;;;3.10
11424;BMP180;5768;51.476;7.210;2023-02-28T05:17:21;101587.00;;;3.10
11424;BMP180;5768;51.476;7.210;2023-02-28T05:22:23;101590.00;;;3.10
11424;BMP180;5768;51.476;7.210;2023-02-28T05:27:27;101590.00;;;3.00
11424;BMP180;5768;51.476;7.210;2023-02-28T05:32:29;101586.00;;;3.00
11424;BMP180;5768;51.476;7.210;2023-02-28T05:37:32;101594.00;;;3.00
11424;BMP180;5768;51.476;7.210;2023-02-28T05:42:35;101591.00;;;2.90
11424;BMP180;5768;51.476;7.210;2023-02-28T05:47:37;101604.00;;;2.90
11424;BMP180;5768;51.476;7.210;2023-02-28T05:52:40;101601.00;;;2.90
11424;BMP180;5768;51.476;7.210;2023-02-28T05:57:44;101619.00;;;2.90
11424;BMP180;5768;51.476;7.210;2023-02-28T06:02:46;101619.00;;;2.90
11424;BMP180;5768;51.476;7.210;2023-02-28T06:07:49;101618.00;;;2.90
11424;BMP180;5768;51.476;7.210;2023-02-28T06:12:52;101630.00;;;2.90
11424;BMP180;5768;51.476;7.210;2023-02-28T06:17:55;101638.00;;;2.90
11424;BMP180;5768;51.476;7.210;2023-02-28T06:22:58;101638.00;;;2.90
11424;BMP180;5768;51.476;7.210;2023-02-28T06:28:02;101628.00;;;2.90
11424;BMP180;5768;51.476;7.210;2023-02-28T06:33:04;101642.00;;;2.90
11424;BMP180;5768;51.476;7.210;2023-02-28T06:38:06;101646.00;;;2.90
11424;BMP180;5768;51.476;7.210;2023-02-28T06:43:10;101648.00;;;2.90
11424;BMP180;5768;51.476;7.210;2023-02-28T06:48:14;101644.00;;;3.00
11424;BMP180;5768;51.476;7.210;2023-02-28T06:53:15;101644.00;;;3.00
11424;BMP180;5768;51.476;7.210;2023-02-28T06:58:19;101646.00;;;3.10
11424;BMP180;5768;51.476;7.210;2023-02-28T07:03:21;101648.00;;;3.20
11424;BMP180;5768;51.476;7.210;2023-02-28T07:08:24;101655.00;;;3.30
11424;BMP180;5768;51.476;7.210;2023-02-28T07:13:29;101657.00;;;3.40
11424;BMP180;5768;51.476;7.210;2023-02-28T07:18:32;101653.00;;;3.50
11424;BMP180;5768;51.476;7.210;2023-02-28T07:23:35;101674.00;;;3.70
11424;BMP180;5768;51.476;7.210;2023-02-28T07:28:40;101668.00;;;3.80
11424;BMP180;5768;51.476;7.210;2023-02-28T07:33:43;101668.00;;;3.90
11424;BMP180;5768;51.476;7.210;2023-02-28T07:38:47;101681.00;;;4.00
11424;BMP180;5768;51.476;7.210;2023-02-28T07:43:54;101674.00;;;4.10
11424;BMP180;5768;51.476;7.210;2023-02-28T07:48:56;101679.00;;;4.10
11424;BMP180;5768;51.476;7.210;2023-02-28T07:54:00;101696.00;;;4.20
11424;BMP180;5768;51.476;7.210;2023-02-28T07:59:03;101683.00;;;4.20
11424;BMP180;5768;51.476;7.210;2023-02-28T08:04:05;101690.00;;;4.30
11424;BMP180;5768;51.476;7.210;2023-02-28T08:09:08;101694.00;;;4.50
11424;BMP180;5768;51.476;7.210;2023-02-28T08:14:14;101703.00;;;4.90
11424;BMP180;5768;51.476;7.210;2023-02-28T08:19:17;101703.00;;;5.30
11424;BMP180;5768;51.476;7.210;2023-02-28T08:24:19;101693.00;;;5.40
11424;BMP180;5768;51.476;7.210;2023-02-28T08:29:23;101693.00;;;5.40
11424;BMP180;5768;51.476;7.210;2023-02-28T08:34:25;101701.00;;;5.50
11424;BMP180;5768;51.476;7.210;2023-02-28T08:39:27;101694.00;;;5.60
11424;BMP180;5768;51.476;7.210;2023-02-28T08:44:30;101700.00;;;5.80
11424;BMP180;5768;51.476;7.210;2023-02-28T08:49:33;101694.00;;;5.90
11424;BMP180;5768;51.476;7.210;2023-02-28T08:54:35;101681.00;;;6.10
11424;BMP180;5768;51.476;7.210;2023-02-28T08:59:40;101693.00;;;6.20
11424;BMP180;5768;51.476;7.210;2023-02-28T09:04:42;101695.00;;;6.30
11424;BMP180;5768;51.476;7.210;2023-02-28T09:09:46;101693.00;;;6.50
11424;BMP180;5768;51.476;7.210;2023-02-28T09:14:56;101689.00;;;6.60
11424;BMP180;5768;51.476;7.210;2023-02-28T09:19:58;101694.00;;;6.60
11424;BMP180;5768;51.476;7.210;2023-02-28T09:25:00;101681.00;;;6.60
11424;BMP180;5768;51.476;7.210;2023-02-28T09:30:05;101689.00;;;6.70
11424;BMP180;5768;51.476;7.210;2023-02-28T09:35:08;101692.00;;;6.80
11424;BMP180;5768;51.476;7.210;2023-02-28T09:40:17;101699.00;;;7.00
11424;BMP180;5768;51.476;7.210;2023-02-28T09:45:26;101697.00;;;7.10
11424;BMP180;5768;51.476;7.210;2023-02-28T09:50:34;101688.00;;;7.20
11424;BMP180;5768;51.476;7.210;2023-02-28T09:55:42;101690.00;;;7.30
11424;BMP180;5768;51.476;7.210;2023-02-28T10:00:57;101689.00;;;7.50
11424;BMP180;5768;51.476;7.210;2023-02-28T10:06:08;101703.00;;;7.60
11424;BMP180;5768;51.476;7.210;2023-02-28T10:11:16;101695.00;;;7.70
11424;BMP180;5768;51.476;7.210;2023-02-28T10:16:29;101691.00;;;7.70
11424;BMP180;5768;51.476;7.210;2023-02-28T10:21:40;101696.00;;;7.80
11424;BMP180;5768;51.476;7.210;2023-02-28T10:26:48;101689.00;;;7.80
11424;BMP180;5768;51.476;7.210;2023-02-28T10:31:51;101679.00;;;7.90
11424;BMP180;5768;51.476;7.210;2023-02-28T10:36:54;101678.00;;;8.10
11424;BMP180;5768;51.476;7.210;2023-02-28T10:42:23;101661.00;;;8.20
11424;BMP180;5768;51.476;7.210;2023-02-28T10:47:27;101680.00;;;8.20
11424;BMP180;5768;51.476;7.210;2023-02-28T10:52:39;101663.00;;;8.20
11424;BMP180;5768;51.476;7.210;2023-02-28T10:57:46;101662.00;;;8.30
11424;BMP180;5768;51.476;7.210;2023-02-28T11:02:52;101660.00;;;8.40
11424;BMP180;5768;51.476;7.210;2023-02-28T11:07:59;101659.00;;;8.50
11424;BMP180;5768;51.476;7.210;2023-02-28T11:13:05;101671.00;;;8.60
11424;BMP180;5768;51.476;7.210;2023-02-28T11:18:22;101674.00;;;8.70
11424;BMP180;5768;51.476;7.210;2023-02-28T11:23:30;101666.00;;;8.70
11424;BMP180;5768;51.476;7.210;2023-02-28T11:28:38;101665.00;;;8.80
11424;BMP180;5768;51.476;7.210;2023-02-28T11:33:44;101657.00;;;9.00
11424;BMP180;5768;51.476;7.210;2023-02-28T11:38:48;101661.00;;;9.30
11424;BMP180;5768;51.476;7.210;2023-02-28T11:44:05;101660.00;;;9.60
11424;BMP180;5768;51.476;7.210;2023-02-28T11:49:32;101661.00;;;9.90
11424;BMP180;5768;51.476;7.210;2023-02-28T11:54:59;101657.00;;;10.30
11424;BMP180;5768;51.476;7.210;2023-02-28T12:00:20;101662.00;;;10.60
11424;BMP180;5768;51.476;7.210;2023-02-28T12:05:34;101648.00;;;10.80
11424;BMP180;5768;51.476;7.210;2023-02-28T12:10:56;101647.00;;;11.00
11424;BMP180;5768;51.476;7.210;2023-02-28T12:16:32;101644.00;;;11.00
11424;BMP180;5768;51.476;7.210;2023-02-28T12:22:06;101646.00;;;11.20
11424;BMP180;5768;51.476;7.210;2023-02-28T12:27:21;101634.00;;;11.40
11424;BMP180;5768;51.476;7.210;2023-02-28T12:32:30;101627.00;;;11.70
11424;BMP180;5768;51.476;7.210;2023-02-28T12:37:41;101617.00;;;12.00
11424;BMP180;5768;51.476;7.210;2023-02-28T12:42:51;101608.00;;;12.30
11424;BMP180;5768;51.476;7.210;2023-02-28T12:48:00;101598.00;;;12.60
11424;BMP180;5768;51.476;7.210;2023-02-28T12:53:09;101603.00;;;13.00
11424;BMP180;5768;51.476;7.210;2023-02-28T12:58:27;101598.00;;;13.40
11424;BMP180;5768;51.476;7.210;2023-02-28T13:04:28;101589.00;;;13.90
11424;BMP180;5768;51.476;7.210;2023-02-28T13:09:35;101589.00;;;14.50
11424;BMP180;5768;51.476;7.210;2023-02-28T13:14:39;101577.00;;;15.00
11424;BMP180;5768;51.476;7.210;2023-02-28T13:19:46;101576.00;;;15.60
11424;BMP180;5768;51.476;7.210;2023-02-28T13:24:52;101581.00;;;16.10
11424;BMP180;5768;51.476;7.210;2023-02-28T13:29:54;101588.00;;;16.60
11424;BMP180;5768;51.476;7.210;2023-02-28T13:35:37;101571.00;;;17.50
11424;BMP180;5768;51.476;7.210;2023-02-28T13:40:40;101574.00;;;18.30
11424;BMP180;5768;51.476;7.210;2023-02-28T13:46:10;101583.00;;;19.10
11424;BMP180;5768;51.476;7.210;2023-02-28T13:51:39;101586.00;;;19.60
11424;BMP180;5768;51.476;7.210;2023-02-28T13:56:50;101572.00;;;20.40
11424;BMP180;5768;51.476;7.210;2023-02-28T14:02:32;101572.00;;;20.70
11424;BMP180;5768;51.476;7.210;2023-02-28T14:07:43;101583.00;;;21.80
11424;BMP180;5768;51.476;7.210;2023-02-28T14:18:33;101585.00;;;22.70
11424;BMP180;5768;51.476;7.210;2023-02-28T14:24:40;101581.00;;;22.70
11424;BMP180;5768;51.476;7.210;2023-02-28T14:35:58;101576.00;;;24.10
11424;BMP180;5768;51.476;7.210;2023-02-28T14:41:06;101594.00;;;24.50
11424;BMP180;5768;51.476;7.210;2023-02-28T14:46:17;101584.00;;;25.00
11424;BMP180;5768;51.476;7.210;2023-02-28T14:51:22;101579.00;;;25.00
11424;BMP180;5768;51.476;7.210;2023-02-28T14:56:34;101588.00;;;25.10
11424;BMP180;5768;51.476;7.210;2023-02-28T15:01:38;101578.00;;;25.50
11424;BMP180;5768;51.476;7.210;2023-02-28T15:06:40;101581.00;;;25.80
11424;BMP180;5768;51.476;7.210;2023-02-28T15:11:47;101581.00;;;26.00
11424;BMP180;5768;51.476;7.210;2023-02-28T15:16:57;101579.00;;;26.00
11424;BMP180;5768;51.476;7.210;2023-02-28T15:22:08;101571.00;;;26.00
11424;BMP180;5768;51.476;7.210;2023-02-28T15:27:20;101566.00;;;26.70
11424;BMP180;5768;51.476;7.210;2023-02-28T15:32:30;101575.00;;;26.70
11424;BMP180;5768;51.476;7.210;2023-02-28T15:37:46;101571.00;;;27.00
11424;BMP180;5768;51.476;7.210;2023-02-28T15:43:14;101571.00;;;27.20
11424;BMP180;5768;51.476;7.210;2023-02-28T15:48:22;101575.00;;;27.20
11424;BMP180;5768;51.476;7.210;2023-02-28T15:53:30;101580.00;;;27.10
11424;BMP180;5768;51.476;7.210;2023-02-28T15:58:35;101572.00;;;26.50
11424;BMP180;5768;51.476;7.210;2023-02-28T16:03:46;101574.00;;;25.90
11424;BMP180;5768;51.476;7.210;2023-02-28T16:08:49;101582.00;;;25.60
11424;BMP180;5768;51.476;7.210;2023-02-28T16:13:52;101575.00;;;24.60
11424;BMP180;5768;51.476;7.210;2023-02-28T16:18:56;101566.00;;;22.50
11424;BMP180;5768;51.476;7.210;2023-02-28T16:23:58;101576.00;;;20.30
11424;BMP180;5768;51.476;7.210;2023-02-28T16:29:01;101581.00;;;19.10
11424;BMP180;5768;51.476;7.210;2023-02-28T16:34:06;101576.00;;;18.00
11424;BMP180;5768;51.476;7.210;2023-02-28T16:39:08;101573.00;;;16.70
11424;BMP180;5768;51.476;7.210;2023-02-28T16:44:13;101582.00;;;15.40
11424;BMP180;5768;51.476;7.210;2023-02-28T16:49:22;101580.00;;;14.50
11424;BMP180;5768;51.476;7.210;2023-02-28T16:54:25;101561.00;;;13.80
11424;BMP180;5768;51.476;7.210;2023-02-28T16:59:28;101569.00;;;13.30
11424;BMP180;5768;51.476;7.210;2023-02-28T17:04:32;101571.00;;;12.80
11424;BMP180;5768;51.476;7.210;2023-02-28T17:09:34;101581.00;;;12.40
11424;BMP180;5768;51.476;7.210;2023-02-28T17:14:37;101567.00;;;11.90
11424;BMP180;5768;51.476;7.210;2023-02-28T17:19:41;101574.00;;;11.50
11424;BMP180;5768;51.476;7.210;2023-02-28T17:24:44;101574.00;;;11.20
11424;BMP180;5768;51.476;7.210;2023-02-28T17:29:47;101581.00;;;10.90
11424;BMP180;5768;51.476;7.210;2023-02-28T17:34:50;101584.00;;;10.60
11424;BMP180;5768;51.476;7.210;2023-02-28T17:39:52;101586.00;;;10.40
11424;BMP180;5768;51.476;7.210;2023-02-28T17:44:55;101589.00;;;10.30
11424;BMP180;5768;51.476;7.210;2023-02-28T17:49:58;101586.00;;;10.10
11424;BMP180;5768;51.476;7.210;2023-02-28T17:55:00;101587.00;;;9.90
11424;BMP180;5768;51.476;7.210;2023-02-28T18:00:04;101591.00;;;9.70
11424;BMP180;5768;51.476;7.210;2023-02-28T18:05:10;101580.00;;;9.50
11424;BMP180;5768;51.476;7.210;2023-02-28T18:10:17;101576.00;;;9.40
11424;BMP180;5768;51.476;7.210;2023-02-28T18:15:21;101587.00;;;9.20
11424;BMP180;5768;51.476;7.210;2023-02-28T18:20:25;101582.00;;;9.10
11424;BMP180;5768;51.476;7.210;2023-02-28T18:25:28;101583.00;;;8.90
11424;BMP180;5768;51.476;7.210;2023-02-28T18:30:35;101577.00;;;8.80
11424;BMP180;5768;51.476;7.210;2023-02-28T18:35:39;101599.00;;;8.70
11424;BMP180;5768;51.476;7.210;2023-02-28T18:40:42;101590.00;;;8.60
11424;BMP180;5768;51.476;7.210;2023-02-28T18:45:44;101593.00;;;8.40
11424;BMP180;5768;51.476;7.210;2023-02-28T18:50:48;101587.00;;;8.30
11424;BMP180;5768;51.476;7.210;2023-02-28T18:55:51;101580.00;;;8.20
11424;BMP180;5768;51.476;7.210;2023-02-28T19:00:53;101588.00;;;8.10
11424;BMP180;5768;51.476;7.210;2023-02-28T19:05:59;101587.00;;;7.90
11424;BMP180;5768;51.476;7.210;2023-02-28T19:11:06;101597.00;;;7.80
11424;BMP180;5768;51.476;7.210;2023-02-28T19:16:11;101587.00;;;7.70
11424;BMP180;5768;51.476;7.210;2023-02-28T19:21:17;101579.00;;;7.60
11424;BMP180;5768;51.476;7.210;2023-02-28T19:26:22;101578.00;;;7.60
11424;BMP180;5768;51.476;7.210;2023-02-28T19:31:25;101592.00;;;7.50
11424;BMP180;5768;51.476;7.210;2023-02-28T19:36:29;101596.00;;;7.40
11424;BMP180;5768;51.476;7.210;2023-02-28T19:41:31;101590.00;;;7.30
11424;BMP180;5768;51.476;7.210;2023-02-28T19:46:33;101603.00;;;7.30
11424;BMP180;5768;51.476;7.210;2023-02-28T19:51:37;101596.00;;;7.20
11424;BMP180;5768;51.476;7.210;2023-02-28T19:56:40;101593.00;;;7.10
11424;BMP180;5768;51.476;7.210;2023-02-28T20:01:42;101595.00;;;7.10
11424;BMP180;5768;51.476;7.210;2023-02-28T20:06:46;101602.00;;;7.10
11424;BMP180;5768;51.476;7.210;2023-02-28T20:11:48;101602.00;;;7.00
11424;BMP180;5768;51.476;7.210;2023-02-28T20:16:50;101599.00;;;6.90
11424;BMP180;5768;51.476;7.210;2023-02-28T20:21:53;101599.00;;;6.80
11424;BMP180;5768;51.476;7.210;2023-02-28T20:26:55;101609.00;;;6.80
11424;BMP180;5768;51.476;7.210;2023-02-28T20:31:58;101612.00;;;6.70
11424;BMP180;5768;51.476;7.210;2023-02-28T20:37:01;101604.00;;;6.60
11424;BMP180;5768;51.476;7.210;2023-02-28T20:42:03;101595.00;;;6.50
11424;BMP180;5768;51.476;7.210;2023-02-28T20:47:05;101599.00;;;6.40
11424;BMP180;5768;51.476;7.210;2023-02-28T20:52:09;101587.00;;;6.30
11424;BMP180;5768;51.476;7.210;2023-02-28T20:57:11;101600.00;;;6.30
11424;BMP180;5768;51.476;7.210;2023-02-28T21:02:15;101597.00;;;6.20
11424;BMP180;5768;51.476;7.210;2023-02-28T21:07:19;101600.00;;;6.10
11424;BMP180;5768;51.476;7.210;2023-02-28T21:12:21;101604.00;;;6.00
11424;BMP180;5768;51.476;7.210;2023-02-28T21:17:23;101593.00;;;6.00
11424;BMP180;5768;51.476;7.210;2023-02-28T21:22:27;101608.00;;;5.90
11424;BMP180;5768;51.476;7.210;2023-02-28T21:27:29;101608.00;;;5.80
11424;BMP180;5768;51.476;7.210;2023-02-28T21:32:31;101605.00;;;5.70
11424;BMP180;5768;51.476;7.210;2023-02-28T21:37:36;101589.00;;;5.70
11424;BMP180;5768;51.476;7.210;2023-02-28T21:42:38;101604.00;;;5.60
11424;BMP180;5768;51.476;7.210;2023-02-28T21:47:41;101604.00;;;5.60
11424;BMP180;5768;51.476;7.210;2023-02-28T21:52:44;101604.00;;;5.60
11424;BMP180;5768;51.476;7.210;2023-02-28T21:57:46;101613.00;;;5.50
11424;BMP180;5768;51.476;7.210;2023-02-28T22:02:48;101602.00;;;5.40
11424;BMP180;5768;51.476;7.210;2023-02-28T22:07:51;101593.00;;;5.40
11424;BMP180;5768;51.476;7.210;2023-02-28T22:12:53;101596.00;;;5.30
11424;BMP180;5768;51.476;7.210;2023-02-28T22:17:55;101596.00;;;5.30
11424;BMP180;5768;51.476;7.210;2023-02-28T22:22:59;101606.00;;;5.20
11424;BMP180;5768;51.476;7.210;2023-02-28T22:28:01;101595.00;;;5.10
11424;BMP180;5768;51.476;7.210;2023-02-28T22:33:03;101617.00;;;5.10
11424;BMP180;5768;51.476;7.210;2023-02-28T22:38:07;101612.00;;;5.00
11424;BMP180;5768;51.476;7.210;2023-02-28T22:43:09;101604.00;;;5.00
11424;BMP180;5768;51.476;7.210;2023-02-28T22:48:12;101599.00;;;4.90
11424;BMP180;5768;51.476;7.210;2023-02-28T22:53:15;101585.00;;;4.90
11424;BMP180;5768;51.476;7.210;2023-02-28T22:58:17;101586.00;;;4.90
11424;BMP180;5768;51.476;7.210;2023-02-28T23:03:20;101597.00;;;4.80
11424;BMP180;5768;51.476;7.210;2023-02-28T23:08:23;101592.00;;;4.80
11424;BMP180;5768;51.476;7.210;2023-02-28T23:13:25;101598.00;;;4.80
11424;BMP180;5768;51.476;7.210;2023-02-28T23:18:28;101603.00;;;4.70
11424;BMP180;5768;51.476;7.210;2023-02-28T23:23:32;101612.00;;;4.70
11424;BMP180;5768;51.476;7.210;2023-02-28T23:28:34;101612.00;;;4.60
11424;BMP180;5768;51.476;7.210;2023-02-28T23:33:36;101608.00;;;4.50
11424;BMP180;5768;51.476;7.210;2023-02-28T23:38:45;101606.00;;;4.50
11424;BMP180;5768;51.476;7.210;2023-02-28T23:43:48;101620.00;;;4.50
11424;BMP180;5768;51.476;7.210;2023-02-28T23:48:50;101612.00;;;4.40
11424;BMP180;5768;51.476;7.210;2023-02-28T23:53:53;101619.00;;;4.40
11424;BMP180;5768;51.476;7.210;2023-02-28T23:58:56;101622.00;;;4.30
